sensor_id;sensor_type;location;lat;lon;timestamp;pressure;altitude;pressure_sealevel;temperature;humidity
7584;BME280;3833;41.764;26.204;2022-08-07T00:00:49;100245.19;;;27.00;100.00
7584;BME280;3833;41.764;26.204;2022-08-07T00:03:16;100236.97;;;27.02;100.00
7584;BME280;3833;41.764;26.204;2022-08-07T00:05:43;100219.91;;;26.87;100.00
7584;BME280;3833;41.764;26.204;2022-08-07T00:08:09;100239.00;;;26.84;100.00
7584;BME280;3833;41.764;26.204;2022-08-07T00:10:39;100240.66;;;26.69;100.00
7584;BME280;3833;41.764;26.204;2022-08-07T00:13:06;100237.63;;;26.48;100.00
7584;BME280;3833;41.764;26.204;2022-08-07T00:15:34;100235.56;;;26.34;100.00
7584;BME280;3833;41.764;26.204;2022-08-07T00:18:01;100226.16;;;26.22;100.00
7584;BME280;3833;41.764;26.204;2022-08-07T00:20:28;100207.50;;;25.97;100.00
7584;BME280;3833;41.764;26.204;2022-08-07T00:22:55;100220.09;;;26.04;100.00
7584;BME280;3833;41.764;26.204;2022-08-07T00:25:22;100232.66;;;26.04;100.00
7584;BME280;3833;41.764;26.204;2022-08-07T00:27:49;100232.19;;;26.16;100.00
7584;BME280;3833;41.764;26.204;2022-08-07T00:30:16;100222.81;;;26.28;100.00
7584;BME280;3833;41.764;26.204;2022-08-07T00:32:46;100231.88;;;26.27;100.00
7584;BME280;3833;41.764;26.204;2022-08-07T00:35:13;100228.50;;;26.25;100.00
7584;BME280;3833;41.764;26.204;2022-08-07T00:37:39;100232.53;;;26.29;100.00
7584;BME280;3833;41.764;26.204;2022-08-07T00:40:07;100224.75;;;26.02;100.00
7584;BME280;3833;41.764;26.204;2022-08-07T00:42:34;100227.78;;;26.07;100.00
7584;BME280;3833;41.764;26.204;2022-08-07T00:45:01;100214.03;;;25.94;100.00
7584;BME280;3833;41.764;26.204;2022-08-07T00:47:28;100224.44;;;25.97;100.00
7584;BME280;3833;41.764;26.204;2022-08-07T00:49:56;100220.03;;;25.88;100.00
7584;BME280;3833;41.764;26.204;2022-08-07T00:52:24;100220.00;;;25.80;100.00
7584;BME280;3833;41.764;26.204;2022-08-07T00:54:51;100217.59;;;25.69;100.00
7584;BME280;3833;41.764;26.204;2022-08-07T00:57:18;100224.56;;;25.62;100.00
7584;BME280;3833;41.764;26.204;2022-08-07T00:59:46;100225.06;;;25.58;100.00
7584;BME280;3833;41.764;26.204;2022-08-07T01:02:13;100221.50;;;25.49;100.00
7584;BME280;3833;41.764;26.204;2022-08-07T01:04:40;100224.00;;;25.51;100.00
7584;BME280;3833;41.764;26.204;2022-08-07T01:07:09;100222.19;;;25.51;100.00
7584;BME280;3833;41.764;26.204;2022-08-07T01:09:36;100205.50;;;25.57;100.00
7584;BME280;3833;41.764;26.204;2022-08-07T01:12:04;100232.28;;;25.65;100.00
7584;BME280;3833;41.764;26.204;2022-08-07T01:14:31;100220.75;;;25.65;100.00
7584;BME280;3833;41.764;26.204;2022-08-07T01:16:58;100225.38;;;25.55;100.00
7584;BME280;3833;41.764;26.204;2022-08-07T01:19:26;100223.81;;;25.44;100.00
7584;BME280;3833;41.764;26.204;2022-08-07T01:21:56;100225.13;;;25.40;100.00
7584;BME280;3833;41.764;26.204;2022-08-07T01:24:23;100239.44;;;25.32;100.00
7584;BME280;3833;41.764;26.204;2022-08-07T01:26:50;100229.06;;;25.29;100.00
7584;BME280;3833;41.764;26.204;2022-08-07T01:29:17;100225.09;;;25.33;100.00
7584;BME280;3833;41.764;26.204;2022-08-07T01:31:44;100227.91;;;25.31;100.00
7584;BME280;3833;41.764;26.204;2022-08-07T01:34:11;100218.00;;;25.24;100.00
7584;BME280;3833;41.764;26.204;2022-08-07T01:36:39;100202.94;;;25.23;100.00
7584;BME280;3833;41.764;26.204;2022-08-07T01:39:07;100227.84;;;25.48;100.00
7584;BME280;3833;41.764;26.204;2022-08-07T01:41:34;100197.66;;;25.31;100.00
7584;BME280;3833;41.764;26.204;2022-08-07T01:44:02;100233.03;;;25.50;100.00
7584;BME280;3833;41.764;26.204;2022-08-07T01:46:29;100223.81;;;25.44;100.00
7584;BME280;3833;41.764;26.204;2022-08-07T01:48:56;100213.03;;;25.29;100.00
7584;BME280;3833;41.764;26.204;2022-08-07T01:51:24;100219.00;;;25.23;100.00
7584;BME280;3833;41.764;26.204;2022-08-07T01:53:54;100219.47;;;25.01;100.00
7584;BME280;3833;41.764;26.204;2022-08-07T01:56:26;100230.50;;;24.80;100.00
7584;BME280;3833;41.764;26.204;2022-08-07T01:58:59;100234.16;;;24.97;100.00
7584;BME280;3833;41.764;26.204;2022-08-07T02:01:34;100215.00;;;24.84;100.00
7584;BME280;3833;41.764;26.204;2022-08-07T02:04:05;100217.69;;;24.84;100.00
7584;BME280;3833;41.764;26.204;2022-08-07T02:06:35;100235.16;;;24.96;100.00
7584;BME280;3833;41.764;26.204;2022-08-07T02:09:07;100209.63;;;24.76;100.00
7584;BME280;3833;41.764;26.204;2022-08-07T02:11:39;100213.88;;;24.69;100.00
7584;BME280;3833;41.764;26.204;2022-08-07T02:14:08;100217.78;;;24.57;100.00
7584;BME280;3833;41.764;26.204;2022-08-07T02:16:37;100204.75;;;24.54;100.00
7584;BME280;3833;41.764;26.204;2022-08-07T02:19:07;100226.94;;;24.72;100.00
7584;BME280;3833;41.764;26.204;2022-08-07T02:21:36;100227.00;;;24.80;100.00
7584;BME280;3833;41.764;26.204;2022-08-07T02:24:05;100228.31;;;24.76;100.00
7584;BME280;3833;41.764;26.204;2022-08-07T02:26:33;100231.00;;;24.76;100.00
7584;BME280;3833;41.764;26.204;2022-08-07T02:29:04;100210.38;;;24.51;100.00
7584;BME280;3833;41.764;26.204;2022-08-07T02:31:32;100236.84;;;24.62;100.00
7584;BME280;3833;41.764;26.204;2022-08-07T02:34:01;100229.13;;;24.59;100.00
7584;BME280;3833;41.764;26.204;2022-08-07T02:36:30;100220.81;;;24.44;100.00
7584;BME280;3833;41.764;26.204;2022-08-07T02:39:00;100230.31;;;24.29;100.00
7584;BME280;3833;41.764;26.204;2022-08-07T02:41:28;100230.63;;;24.09;100.00
7584;BME280;3833;41.764;26.204;2022-08-07T02:43:57;100235.78;;;23.93;100.00
7584;BME280;3833;41.764;26.204;2022-08-07T02:46:29;100231.16;;;23.76;100.00
7584;BME280;3833;41.764;26.204;2022-08-07T02:48:57;100240.34;;;23.64;100.00
7584;BME280;3833;41.764;26.204;2022-08-07T02:51:26;100238.19;;;23.50;100.00
7584;BME280;3833;41.764;26.204;2022-08-07T02:53:59;100240.19;;;23.39;100.00
7584;BME280;3833;41.764;26.204;2022-08-07T02:56:29;100241.59;;;23.33;100.00
7584;BME280;3833;41.764;26.204;2022-08-07T02:58:59;100232.06;;;23.31;100.00
7584;BME280;3833;41.764;26.204;2022-08-07T03:01:30;100240.19;;;23.39;100.00
7584;BME280;3833;41.764;26.204;2022-08-07T03:03:58;100237.94;;;23.44;100.00
7584;BME280;3833;41.764;26.204;2022-08-07T03:06:25;100240.72;;;23.42;100.00
7584;BME280;3833;41.764;26.204;2022-08-07T03:08:54;100244.50;;;23.49;100.00
7584;BME280;3833;41.764;26.204;2022-08-07T03:11:21;100246.69;;;23.63;100.00
7584;BME280;3833;41.764;26.204;2022-08-07T03:13:48;100246.69;;;23.63;100.00
7584;BME280;3833;41.764;26.204;2022-08-07T03:16:16;100240.25;;;23.56;100.00
7584;BME280;3833;41.764;26.204;2022-08-07T03:18:44;100253.50;;;23.75;100.00
7584;BME280;3833;41.764;26.204;2022-08-07T03:21:13;100252.66;;;23.75;100.00
7584;BME280;3833;41.764;26.204;2022-08-07T03:23:41;100252.00;;;23.63;100.00
7584;BME280;3833;41.764;26.204;2022-08-07T03:26:09;100258.34;;;23.62;100.00
7584;BME280;3833;41.764;26.204;2022-08-07T03:28:40;100261.94;;;23.71;100.00
7584;BME280;3833;41.764;26.204;2022-08-07T03:31:08;100256.47;;;23.72;100.00
7584;BME280;3833;41.764;26.204;2022-08-07T03:33:48;100254.63;;;23.73;100.00
7584;BME280;3833;41.764;26.204;2022-08-07T03:36:18;100255.50;;;23.73;100.00
7584;BME280;3833;41.764;26.204;2022-08-07T03:38:46;100226.44;;;23.70;100.00
7584;BME280;3833;41.764;26.204;2022-08-07T03:41:14;100259.78;;;23.93;100.00
7584;BME280;3833;41.764;26.204;2022-08-07T03:43:42;100263.28;;;23.94;100.00
7584;BME280;3833;41.764;26.204;2022-08-07T03:46:10;100264.13;;;23.94;100.00
7584;BME280;3833;41.764;26.204;2022-08-07T03:48:38;100259.88;;;24.01;100.00
7584;BME280;3833;41.764;26.204;2022-08-07T03:51:07;100261.88;;;23.90;100.00
7584;BME280;3833;41.764;26.204;2022-08-07T03:53:36;100260.81;;;23.83;100.00
7584;BME280;3833;41.764;26.204;2022-08-07T03:56:04;100266.44;;;23.80;100.00
7584;BME280;3833;41.764;26.204;2022-08-07T03:58:31;100265.59;;;23.79;100.00
7584;BME280;3833;41.764;26.204;2022-08-07T04:00:59;100271.78;;;23.70;100.00
7584;BME280;3833;41.764;26.204;2022-08-07T04:03:26;100270.88;;;23.52;100.00
7584;BME280;3833;41.764;26.204;2022-08-07T04:05:53;100265.69;;;23.41;100.00
7584;BME280;3833;41.764;26.204;2022-08-07T04:08:22;100284.69;;;23.19;100.00
7584;BME280;3833;41.764;26.204;2022-08-07T04:10:50;100276.69;;;23.19;100.00
7584;BME280;3833;41.764;26.204;2022-08-07T04:13:18;100283.97;;;23.17;100.00
7584;BME280;3833;41.764;26.204;2022-08-07T04:15:45;100276.41;;;23.22;100.00
7584;BME280;3833;41.764;26.204;2022-08-07T04:18:13;100282.75;;;23.12;100.00
7584;BME280;3833;41.764;26.204;2022-08-07T04:20:40;100284.25;;;23.24;100.00
7584;BME280;3833;41.764;26.204;2022-08-07T04:23:08;100280.31;;;23.28;100.00
7584;BME280;3833;41.764;26.204;2022-08-07T04:25:36;100281.97;;;23.38;100.00
7584;BME280;3833;41.764;26.204;2022-08-07T04:28:04;100280.28;;;23.47;100.00
7584;BME280;3833;41.764;26.204;2022-08-07T04:30:31;100277.75;;;23.45;100.00
7584;BME280;3833;41.764;26.204;2022-08-07T04:32:59;100292.34;;;23.41;100.00
7584;BME280;3833;41.764;26.204;2022-08-07T04:35:26;100287.03;;;23.41;100.00
7584;BME280;3833;41.764;26.204;2022-08-07T04:37:54;100292.91;;;23.45;100.00
7584;BME280;3833;41.764;26.204;2022-08-07T04:40:21;100281.97;;;23.38;100.00
7584;BME280;3833;41.764;26.204;2022-08-07T04:42:49;100284.25;;;23.33;100.00
7584;BME280;3833;41.764;26.204;2022-08-07T04:45:16;100299.13;;;23.36;100.00
7584;BME280;3833;41.764;26.204;2022-08-07T04:47:51;100292.94;;;23.35;100.00
7584;BME280;3833;41.764;26.204;2022-08-07T04:50:27;100300.78;;;23.46;100.00
7584;BME280;3833;41.764;26.204;2022-08-07T04:53:05;100296.84;;;23.50;100.00
7584;BME280;3833;41.764;26.204;2022-08-07T04:55:38;100298.81;;;23.48;100.00
7584;BME280;3833;41.764;26.204;2022-08-07T04:58:16;100301.88;;;23.53;100.00
7584;BME280;3833;41.764;26.204;2022-08-07T05:00:49;100307.59;;;23.58;100.00
7584;BME280;3833;41.764;26.204;2022-08-07T05:03:23;100301.53;;;23.66;100.00
7584;BME280;3833;41.764;26.204;2022-08-07T05:05:59;100296.91;;;23.77;100.00
7584;BME280;3833;41.764;26.204;2022-08-07T05:08:35;100299.00;;;23.83;100.00
7584;BME280;3833;41.764;26.204;2022-08-07T05:11:09;100308.22;;;23.89;100.00
7584;BME280;3833;41.764;26.204;2022-08-07T05:13:44;100297.09;;;24.03;100.00
7584;BME280;3833;41.764;26.204;2022-08-07T05:16:13;100287.72;;;24.16;100.00
7584;BME280;3833;41.764;26.204;2022-08-07T05:18:45;100268.16;;;24.25;100.00
7584;BME280;3833;41.764;26.204;2022-08-07T05:21:16;100299.81;;;24.47;100.00
7584;BME280;3833;41.764;26.204;2022-08-07T05:23:47;100298.84;;;24.65;100.00
7584;BME280;3833;41.764;26.204;2022-08-07T05:26:17;100300.47;;;24.76;100.00
7584;BME280;3833;41.764;26.204;2022-08-07T05:28:48;100303.72;;;24.87;100.00
7584;BME280;3833;41.764;26.204;2022-08-07T05:31:17;100301.03;;;25.05;100.00
7584;BME280;3833;41.764;26.204;2022-08-07T05:33:45;100294.81;;;25.14;100.00
7584;BME280;3833;41.764;26.204;2022-08-07T05:36:14;100284.00;;;25.23;100.00
7584;BME280;3833;41.764;26.204;2022-08-07T05:38:42;100297.91;;;25.52;100.00
7584;BME280;3833;41.764;26.204;2022-08-07T05:41:10;100297.34;;;25.66;100.00
7584;BME280;3833;41.764;26.204;2022-08-07T05:43:38;100311.28;;;25.77;100.00
7584;BME280;3833;41.764;26.204;2022-08-07T05:46:06;100317.06;;;25.90;100.00
7584;BME280;3833;41.764;26.204;2022-08-07T05:48:34;100308.94;;;26.00;100.00
7584;BME280;3833;41.764;26.204;2022-08-07T05:51:00;100313.84;;;26.20;100.00
7584;BME280;3833;41.764;26.204;2022-08-07T05:53:28;100317.63;;;26.35;100.00
7584;BME280;3833;41.764;26.204;2022-08-07T05:55:55;100308.97;;;26.49;100.00
7584;BME280;3833;41.764;26.204;2022-08-07T05:58:24;100320.41;;;26.67;100.00
7584;BME280;3833;41.764;26.204;2022-08-07T06:00:53;100312.22;;;26.76;100.00
7584;BME280;3833;41.764;26.204;2022-08-07T06:03:22;100318.78;;;26.98;100.00
7584;BME280;3833;41.764;26.204;2022-08-07T06:05:51;100314.47;;;27.13;100.00
7584;BME280;3833;41.764;26.204;2022-08-07T06:08:19;100317.97;;;27.21;100.00
7584;BME280;3833;41.764;26.204;2022-08-07T06:10:46;100322.16;;;27.40;100.00
7584;BME280;3833;41.764;26.204;2022-08-07T06:13:13;100327.50;;;27.55;100.00
7584;BME280;3833;41.764;26.204;2022-08-07T06:15:41;100316.25;;;27.60;100.00
7584;BME280;3833;41.764;26.204;2022-08-07T06:18:10;100301.34;;;27.65;100.00
7584;BME280;3833;41.764;26.204;2022-08-07T06:20:39;100316.75;;;27.79;100.00
7584;BME280;3833;41.764;26.204;2022-08-07T06:23:07;100308.00;;;27.85;100.00
7584;BME280;3833;41.764;26.204;2022-08-07T06:25:35;100290.41;;;27.83;100.00
7584;BME280;3833;41.764;26.204;2022-08-07T06:28:06;100310.25;;;28.12;100.00
7584;BME280;3833;41.764;26.204;2022-08-07T06:30:33;100305.50;;;28.30;100.00
7584;BME280;3833;41.764;26.204;2022-08-07T06:33:00;100303.94;;;28.44;95.69
7584;BME280;3833;41.764;26.204;2022-08-07T06:35:30;100300.97;;;28.61;91.98
7584;BME280;3833;41.764;26.204;2022-08-07T06:37:59;100307.97;;;28.70;87.30
7584;BME280;3833;41.764;26.204;2022-08-07T06:40:28;100295.97;;;28.80;83.87
7584;BME280;3833;41.764;26.204;2022-08-07T06:42:55;100307.38;;;28.90;83.24
7584;BME280;3833;41.764;26.204;2022-08-07T06:45:23;100310.47;;;29.02;82.69
7584;BME280;3833;41.764;26.204;2022-08-07T06:47:50;100318.72;;;29.23;81.95
7584;BME280;3833;41.764;26.204;2022-08-07T06:50:17;100317.03;;;29.44;80.70
7584;BME280;3833;41.764;26.204;2022-08-07T06:52:47;100315.81;;;29.47;79.32
7584;BME280;3833;41.764;26.204;2022-08-07T06:55:21;100318.44;;;29.55;78.25
7584;BME280;3833;41.764;26.204;2022-08-07T06:57:49;100315.47;;;29.64;78.06
7584;BME280;3833;41.764;26.204;2022-08-07T07:00:17;100310.19;;;29.85;75.61
7584;BME280;3833;41.764;26.204;2022-08-07T07:02:45;100315.88;;;29.75;76.28
7584;BME280;3833;41.764;26.204;2022-08-07T07:05:12;100306.13;;;29.89;75.25
7584;BME280;3833;41.764;26.204;2022-08-07T07:07:44;100315.44;;;30.15;74.46
7584;BME280;3833;41.764;26.204;2022-08-07T07:10:12;100318.56;;;30.19;74.37
7584;BME280;3833;41.764;26.204;2022-08-07T07:12:45;100302.59;;;30.03;74.53
7584;BME280;3833;41.764;26.204;2022-08-07T07:15:17;100304.44;;;30.31;73.86
7584;BME280;3833;41.764;26.204;2022-08-07T07:17:52;100308.41;;;30.64;73.25
7584;BME280;3833;41.764;26.204;2022-08-07T07:20:24;100318.94;;;30.80;71.71
7584;BME280;3833;41.764;26.204;2022-08-07T07:22:51;100302.66;;;31.09;69.68
7584;BME280;3833;41.764;26.204;2022-08-07T07:25:19;100306.41;;;32.17;66.45
7584;BME280;3833;41.764;26.204;2022-08-07T07:27:51;100306.78;;;33.73;61.03
7584;BME280;3833;41.764;26.204;2022-08-07T07:30:21;100303.41;;;34.91;57.71
7584;BME280;3833;41.764;26.204;2022-08-07T07:32:51;100307.88;;;35.65;52.46
7584;BME280;3833;41.764;26.204;2022-08-07T07:35:19;100309.13;;;35.07;53.87
7584;BME280;3833;41.764;26.204;2022-08-07T07:37:49;100286.13;;;35.16;51.89
7584;BME280;3833;41.764;26.204;2022-08-07T07:40:19;100290.38;;;34.99;51.98
7584;BME280;3833;41.764;26.204;2022-08-07T07:42:51;100310.84;;;34.08;52.79
7584;BME280;3833;41.764;26.204;2022-08-07T07:45:20;100305.50;;;33.43;54.72
7584;BME280;3833;41.764;26.204;2022-08-07T07:47:48;100310.28;;;33.93;55.13
7584;BME280;3833;41.764;26.204;2022-08-07T07:50:17;100308.13;;;35.32;52.17
7584;BME280;3833;41.764;26.204;2022-08-07T07:52:46;100302.91;;;36.69;48.87
7584;BME280;3833;41.764;26.204;2022-08-07T07:55:17;100305.19;;;37.43;45.70
7584;BME280;3833;41.764;26.204;2022-08-07T07:57:48;100310.41;;;38.01;44.58
7584;BME280;3833;41.764;26.204;2022-08-07T08:00:16;100306.34;;;36.94;46.28
7584;BME280;3833;41.764;26.204;2022-08-07T08:02:46;100284.44;;;37.53;45.21
7584;BME280;3833;41.764;26.204;2022-08-07T08:05:16;100273.06;;;38.02;43.85
7584;BME280;3833;41.764;26.204;2022-08-07T08:07:44;100295.00;;;37.95;44.77
7584;BME280;3833;41.764;26.204;2022-08-07T08:10:13;100284.81;;;35.92;47.96
7584;BME280;3833;41.764;26.204;2022-08-07T08:12:40;100293.69;;;36.05;46.65
7584;BME280;3833;41.764;26.204;2022-08-07T08:15:09;100296.41;;;35.81;48.14
7584;BME280;3833;41.764;26.204;2022-08-07T08:17:36;100293.28;;;35.59;48.48
7584;BME280;3833;41.764;26.204;2022-08-07T08:20:05;100286.31;;;35.88;47.10
7584;BME280;3833;41.764;26.204;2022-08-07T08:22:37;100296.16;;;36.25;46.84
7584;BME280;3833;41.764;26.204;2022-08-07T08:25:23;100282.72;;;36.88;45.79
7584;BME280;3833;41.764;26.204;2022-08-07T08:28:11;100281.66;;;37.30;44.23
7584;BME280;3833;41.764;26.204;2022-08-07T08:30:42;100267.25;;;36.41;45.70
7584;BME280;3833;41.764;26.204;2022-08-07T08:33:12;100278.88;;;35.52;47.46
7584;BME280;3833;41.764;26.204;2022-08-07T08:35:46;100281.38;;;35.78;47.27
7584;BME280;3833;41.764;26.204;2022-08-07T08:38:14;100284.97;;;36.15;46.45
7584;BME280;3833;41.764;26.204;2022-08-07T08:40:46;100279.91;;;35.09;47.03
7584;BME280;3833;41.764;26.204;2022-08-07T08:43:18;100270.22;;;35.86;46.51
7584;BME280;3833;41.764;26.204;2022-08-07T08:45:52;100274.72;;;34.70;47.84
7584;BME280;3833;41.764;26.204;2022-08-07T08:48:26;100277.16;;;34.78;49.06
7584;BME280;3833;41.764;26.204;2022-08-07T08:51:00;100272.81;;;35.08;47.49
7584;BME280;3833;41.764;26.204;2022-08-07T08:53:32;100261.69;;;35.16;46.91
7584;BME280;3833;41.764;26.204;2022-08-07T08:56:06;100258.78;;;35.78;46.90
7584;BME280;3833;41.764;26.204;2022-08-07T08:58:41;100258.97;;;36.95;45.51
7584;BME280;3833;41.764;26.204;2022-08-07T09:01:14;100266.59;;;37.16;44.78
7584;BME280;3833;41.764;26.204;2022-08-07T09:03:49;100264.03;;;37.90;42.09
7584;BME280;3833;41.764;26.204;2022-08-07T09:09:07;100262.59;;;34.97;46.97
7584;BME280;3833;41.764;26.204;2022-08-07T09:11:40;100253.72;;;35.39;46.98
7584;BME280;3833;41.764;26.204;2022-08-07T09:14:11;100251.84;;;36.36;45.86
7584;BME280;3833;41.764;26.204;2022-08-07T09:16:50;100256.53;;;35.75;46.07
7584;BME280;3833;41.764;26.204;2022-08-07T09:19:24;100244.09;;;35.85;45.82
7584;BME280;3833;41.764;26.204;2022-08-07T09:22:06;100251.84;;;36.53;44.23
7584;BME280;3833;41.764;26.204;2022-08-07T09:24:45;100255.75;;;36.57;43.44
7584;BME280;3833;41.764;26.204;2022-08-07T09:27:23;100243.41;;;35.23;45.89
7584;BME280;3833;41.764;26.204;2022-08-07T09:29:56;100231.66;;;35.29;46.64
7584;BME280;3833;41.764;26.204;2022-08-07T09:32:36;100243.31;;;36.14;45.41
7584;BME280;3833;41.764;26.204;2022-08-07T09:35:17;100239.72;;;36.02;44.08
7584;BME280;3833;41.764;26.204;2022-08-07T09:37:53;100234.91;;;36.51;43.69
7584;BME280;3833;41.764;26.204;2022-08-07T09:40:28;100236.88;;;36.85;43.27
7584;BME280;3833;41.764;26.204;2022-08-07T09:43:05;100234.91;;;36.34;43.37
7584;BME280;3833;41.764;26.204;2022-08-07T09:45:39;100233.25;;;35.61;43.90
7584;BME280;3833;41.764;26.204;2022-08-07T09:48:29;100231.59;;;35.35;44.56
7584;BME280;3833;41.764;26.204;2022-08-07T09:51:09;100180.34;;;34.66;45.66
7584;BME280;3833;41.764;26.204;2022-08-07T09:53:39;100225.34;;;35.77;44.54
7584;BME280;3833;41.764;26.204;2022-08-07T09:56:43;100222.50;;;36.38;43.47
7584;BME280;3833;41.764;26.204;2022-08-07T09:59:38;100217.06;;;36.38;43.42
7584;BME280;3833;41.764;26.204;2022-08-07T10:02:30;100179.25;;;35.82;43.13
7584;BME280;3833;41.764;26.204;2022-08-07T10:08:25;100206.28;;;37.58;39.79
7584;BME280;3833;41.764;26.204;2022-08-07T10:11:04;100195.84;;;37.33;39.46
7584;BME280;3833;41.764;26.204;2022-08-07T10:13:45;100204.03;;;37.67;39.06
7584;BME280;3833;41.764;26.204;2022-08-07T10:19:45;100194.56;;;36.71;39.58
7584;BME280;3833;41.764;26.204;2022-08-07T10:22:31;100192.78;;;36.65;39.97
7584;BME280;3833;41.764;26.204;2022-08-07T10:25:29;100187.69;;;37.44;38.97
7584;BME280;3833;41.764;26.204;2022-08-07T10:28:16;100188.13;;;37.64;38.70
7584;BME280;3833;41.764;26.204;2022-08-07T10:31:00;100189.41;;;36.23;40.30
7584;BME280;3833;41.764;26.204;2022-08-07T10:33:39;100194.19;;;36.56;39.36
7584;BME280;3833;41.764;26.204;2022-08-07T10:36:29;100191.69;;;37.07;38.35
7584;BME280;3833;41.764;26.204;2022-08-07T10:39:06;100194.22;;;37.20;38.26
7584;BME280;3833;41.764;26.204;2022-08-07T10:41:41;100183.06;;;37.56;38.32
7584;BME280;3833;41.764;26.204;2022-08-07T10:44:15;100164.41;;;38.15;37.20
7584;BME280;3833;41.764;26.204;2022-08-07T10:46:52;100170.38;;;37.04;38.01
7584;BME280;3833;41.764;26.204;2022-08-07T10:49:22;100179.53;;;36.57;38.58
7584;BME280;3833;41.764;26.204;2022-08-07T10:51:56;100169.66;;;35.80;38.43
7584;BME280;3833;41.764;26.204;2022-08-07T10:54:32;100165.56;;;36.65;37.85
7584;BME280;3833;41.764;26.204;2022-08-07T10:57:09;100160.84;;;37.75;37.05
7584;BME280;3833;41.764;26.204;2022-08-07T10:59:57;100153.53;;;37.64;37.28
7584;BME280;3833;41.764;26.204;2022-08-07T11:02:36;100160.59;;;38.16;36.48
7584;BME280;3833;41.764;26.204;2022-08-07T11:05:23;100159.72;;;38.55;35.94
7584;BME280;3833;41.764;26.204;2022-08-07T11:08:03;100160.50;;;39.33;35.31
7584;BME280;3833;41.764;26.204;2022-08-07T11:10:38;100149.44;;;38.18;36.13
7584;BME280;3833;41.764;26.204;2022-08-07T11:13:12;100166.28;;;37.87;37.61
7584;BME280;3833;41.764;26.204;2022-08-07T11:15:41;100153.59;;;38.20;37.92
7584;BME280;3833;41.764;26.204;2022-08-07T11:18:15;100163.38;;;38.61;36.61
7584;BME280;3833;41.764;26.204;2022-08-07T11:20:48;100157.59;;;37.16;39.13
7584;BME280;3833;41.764;26.204;2022-08-07T11:23:23;100155.41;;;37.64;38.17
7584;BME280;3833;41.764;26.204;2022-08-07T11:26:00;100163.50;;;37.25;39.23
7584;BME280;3833;41.764;26.204;2022-08-07T11:28:34;100162.53;;;37.53;38.95
7584;BME280;3833;41.764;26.204;2022-08-07T11:31:06;100154.94;;;36.75;40.48
7584;BME280;3833;41.764;26.204;2022-08-07T11:33:46;100165.19;;;37.37;40.10
7584;BME280;3833;41.764;26.204;2022-08-07T11:36:33;100172.94;;;37.68;38.97
7584;BME280;3833;41.764;26.204;2022-08-07T11:39:11;100168.47;;;36.93;39.61
7584;BME280;3833;41.764;26.204;2022-08-07T11:41:48;100179.59;;;37.03;40.09
7584;BME280;3833;41.764;26.204;2022-08-07T11:44:24;100161.13;;;37.05;39.71
7584;BME280;3833;41.764;26.204;2022-08-07T11:47:00;100174.53;;;36.95;39.67
7584;BME280;3833;41.764;26.204;2022-08-07T11:49:47;100183.84;;;36.88;39.16
7584;BME280;3833;41.764;26.204;2022-08-07T11:52:35;100194.06;;;36.04;43.78
7584;BME280;3833;41.764;26.204;2022-08-07T11:55:12;100188.56;;;35.57;44.95
7584;BME280;3833;41.764;26.204;2022-08-07T11:57:52;100208.84;;;34.50;48.96
7584;BME280;3833;41.764;26.204;2022-08-07T12:00:29;100217.13;;;34.55;50.81
7584;BME280;3833;41.764;26.204;2022-08-07T12:03:14;100218.47;;;35.08;51.85
7584;BME280;3833;41.764;26.204;2022-08-07T12:05:55;100232.09;;;35.26;55.90
7584;BME280;3833;41.764;26.204;2022-08-07T12:08:28;100242.50;;;33.93;65.95
7584;BME280;3833;41.764;26.204;2022-08-07T12:11:00;100237.50;;;33.77;65.56
7584;BME280;3833;41.764;26.204;2022-08-07T12:13:40;100242.88;;;32.47;65.29
7584;BME280;3833;41.764;26.204;2022-08-07T12:16:11;100218.06;;;32.37;64.27
7584;BME280;3833;41.764;26.204;2022-08-07T12:18:45;100235.81;;;32.06;63.21
7584;BME280;3833;41.764;26.204;2022-08-07T12:21:25;100242.47;;;32.50;60.70
7584;BME280;3833;41.764;26.204;2022-08-07T12:23:58;100238.31;;;32.61;61.13
7584;BME280;3833;41.764;26.204;2022-08-07T12:26:30;100231.91;;;32.88;60.41
7584;BME280;3833;41.764;26.204;2022-08-07T12:29:06;100229.66;;;33.04;60.21
7584;BME280;3833;41.764;26.204;2022-08-07T12:31:37;100238.13;;;32.62;61.58
7584;BME280;3833;41.764;26.204;2022-08-07T12:34:05;100233.38;;;32.84;59.69
7584;BME280;3833;41.764;26.204;2022-08-07T12:36:33;100230.47;;;32.85;58.09
7584;BME280;3833;41.764;26.204;2022-08-07T12:39:03;100223.38;;;32.91;55.21
7584;BME280;3833;41.764;26.204;2022-08-07T12:41:33;100216.88;;;32.59;55.56
7584;BME280;3833;41.764;26.204;2022-08-07T12:44:05;100221.94;;;32.88;53.08
7584;BME280;3833;41.764;26.204;2022-08-07T12:46:45;100219.19;;;32.62;53.08
7584;BME280;3833;41.764;26.204;2022-08-07T12:49:21;100232.56;;;33.35;51.71
7584;BME280;3833;41.764;26.204;2022-08-07T12:51:59;100227.78;;;33.24;51.12
7584;BME280;3833;41.764;26.204;2022-08-07T12:54:31;100233.81;;;33.32;50.93
7584;BME280;3833;41.764;26.204;2022-08-07T12:57:03;100231.44;;;33.88;50.30
7584;BME280;3833;41.764;26.204;2022-08-07T12:59:34;100221.25;;;33.83;50.40
7584;BME280;3833;41.764;26.204;2022-08-07T13:02:21;100235.09;;;33.30;53.81
7584;BME280;3833;41.764;26.204;2022-08-07T13:05:05;100188.41;;;33.15;52.51
7584;BME280;3833;41.764;26.204;2022-08-07T13:07:47;100224.50;;;34.05;51.84
7584;BME280;3833;41.764;26.204;2022-08-07T13:10:24;100232.47;;;34.43;51.36
7584;BME280;3833;41.764;26.204;2022-08-07T13:13:12;100216.72;;;34.65;50.83
7584;BME280;3833;41.764;26.204;2022-08-07T13:15:52;100215.84;;;34.95;50.12
7584;BME280;3833;41.764;26.204;2022-08-07T13:18:28;100219.41;;;34.27;50.21
7584;BME280;3833;41.764;26.204;2022-08-07T13:21:01;100220.84;;;33.73;50.63
7584;BME280;3833;41.764;26.204;2022-08-07T13:23:36;100200.25;;;33.53;48.19
7584;BME280;3833;41.764;26.204;2022-08-07T13:26:12;100202.16;;;32.88;49.69
7584;BME280;3833;41.764;26.204;2022-08-07T13:28:44;100200.25;;;33.53;48.95